createdAt,value
2022-12-08T00:02:24.068Z,13.80
2022-12-08T00:05:10.434Z,14.13
2022-12-08T00:07:57.182Z,14.20
2022-12-08T00:10:48.457Z,13.70
2022-12-08T00:13:14.233Z,14.53
2022-12-08T00:15:44.017Z,14.30
2022-12-08T00:18:12.470Z,14.60
2022-12-08T00:20:40.900Z,14.20
2022-12-08T00:23:09.285Z,15.03
2022-12-08T00:25:39.035Z,14.20
2022-12-08T00:28:07.550Z,14.43
2022-12-08T00:30:35.959Z,13.60
2022-12-08T00:33:05.768Z,13.73
2022-12-08T00:35:36.526Z,13.57
2022-12-08T00:38:07.181Z,13.60
2022-12-08T00:40:35.600Z,14.00
2022-12-08T00:43:04.013Z,13.50
2022-12-08T00:45:32.465Z,13.30
2022-12-08T00:48:00.936Z,13.40
2022-12-08T00:50:30.707Z,13.23
2022-12-08T00:52:59.156Z,13.43
2022-12-08T00:55:27.607Z,12.63
2022-12-08T00:57:56.001Z,12.63
2022-12-08T01:00:24.376Z,12.73
2022-12-08T01:02:52.876Z,13.17
2022-12-08T01:05:21.296Z,12.27
2022-12-08T01:07:51.196Z,12.27
2022-12-08T01:10:19.837Z,12.70
2022-12-08T01:12:48.226Z,12.37
2022-12-08T01:15:16.656Z,12.57
2022-12-08T01:17:45.145Z,12.03
2022-12-08T01:20:13.824Z,12.27
2022-12-08T01:22:42.217Z,11.87
2022-12-08T01:25:12.234Z,11.70
2022-12-08T01:27:41.655Z,12.20
2022-12-08T01:30:11.025Z,11.57
2022-12-08T01:32:39.503Z,11.43
2022-12-08T01:35:08.275Z,11.67
2022-12-08T01:37:36.716Z,11.33
2022-12-08T01:40:05.999Z,11.90
2022-12-08T01:42:38.281Z,11.23
2022-12-08T01:45:07.576Z,11.07
2022-12-08T01:47:38.387Z,11.27
2022-12-08T01:50:08.752Z,10.57
2022-12-08T01:52:39.578Z,11.07
2022-12-08T01:55:10.225Z,11.27
2022-12-08T01:57:43.371Z,10.90
2022-12-08T02:00:12.773Z,10.43
2022-12-08T02:02:43.997Z,10.33
2022-12-08T02:05:13.026Z,10.07
2022-12-08T02:07:41.808Z,9.67
2022-12-08T02:10:10.827Z,10.07
2022-12-08T02:12:40.642Z,9.53
2022-12-08T02:15:09.658Z,10.00
2022-12-08T02:17:47.638Z,9.73
2022-12-08T02:20:24.164Z,9.73
2022-12-08T02:22:56.497Z,9.30
2022-12-08T02:25:29.794Z,9.43
2022-12-08T02:28:04.277Z,9.23
2022-12-08T02:30:37.475Z,9.30
2022-12-08T02:33:30.097Z,9.00
2022-12-08T02:36:01.453Z,9.30
2022-12-08T02:38:37.386Z,8.63
2022-12-08T02:41:10.178Z,8.40
2022-12-08T02:43:41.832Z,8.80
2022-12-08T02:46:11.670Z,8.50
2022-12-08T02:48:40.442Z,7.57
2022-12-08T02:51:10.279Z,8.00
2022-12-08T02:53:38.877Z,8.00
2022-12-08T02:56:15.553Z,8.13
2022-12-08T02:59:02.348Z,7.13
2022-12-08T03:01:47.006Z,7.60
2022-12-08T03:04:18.738Z,7.73
2022-12-08T03:06:51.770Z,7.60
2022-12-08T03:09:22.381Z,7.43
2022-12-08T03:11:53.399Z,6.97
2022-12-08T03:14:23.322Z,6.90
2022-12-08T03:16:52.980Z,7.40
2022-12-08T03:19:24.364Z,7.30
2022-12-08T03:22:00.389Z,7.00
2022-12-08T03:24:29.063Z,6.83
2022-12-08T03:26:58.804Z,7.30
2022-12-08T03:29:27.354Z,6.70
2022-12-08T03:31:56.846Z,6.53
2022-12-08T03:34:27.288Z,7.20
2022-12-08T03:36:57.317Z,7.00
2022-12-08T03:39:26.234Z,7.57
2022-12-08T03:41:54.632Z,6.63
2022-12-08T03:44:23.018Z,6.80
2022-12-08T03:46:51.456Z,7.07
2022-12-08T03:49:19.882Z,6.60
2022-12-08T03:51:48.354Z,6.90
2022-12-08T03:54:18.187Z,6.93
2022-12-08T03:56:46.606Z,6.60
2022-12-08T03:59:15.007Z,7.00
2022-12-08T04:01:43.434Z,6.30
2022-12-08T04:04:11.875Z,6.30
2022-12-08T04:06:40.269Z,6.50
2022-12-08T04:09:08.698Z,6.37
2022-12-08T04:11:38.497Z,6.97
2022-12-08T04:14:06.926Z,6.90
2022-12-08T04:16:35.439Z,6.70
2022-12-08T04:19:03.933Z,6.10
2022-12-08T04:21:32.363Z,5.97
2022-12-08T04:24:01.529Z,6.07
2022-12-08T04:26:30.376Z,6.10
2022-12-08T04:29:00.240Z,5.83
2022-12-08T04:31:28.795Z,6.23
2022-12-08T04:33:57.273Z,6.10
2022-12-08T04:36:25.657Z,6.10
2022-12-08T04:38:54.249Z,6.17
2022-12-08T04:41:22.666Z,5.87
2022-12-08T04:43:51.130Z,6.17
2022-12-08T04:46:20.992Z,5.73
2022-12-08T04:48:49.542Z,5.60
2022-12-08T04:51:22.100Z,5.47
2022-12-08T04:53:50.572Z,5.53
2022-12-08T04:56:20.529Z,5.53
2022-12-08T04:58:48.997Z,5.50
2022-12-08T05:01:17.498Z,6.07
2022-12-08T05:03:47.346Z,5.30
2022-12-08T05:06:16.033Z,5.57
2022-12-08T05:08:44.503Z,5.00
2022-12-08T05:11:13.782Z,4.90
2022-12-08T05:13:42.219Z,5.23
2022-12-08T05:16:11.560Z,4.87
2022-12-08T05:18:40.743Z,4.90
2022-12-08T05:21:10.848Z,5.10
2022-12-08T05:23:39.393Z,4.90
2022-12-08T05:26:08.089Z,4.90
2022-12-08T05:28:41.746Z,5.07
2022-12-08T05:31:12.506Z,4.70
2022-12-08T05:33:41.165Z,4.80
2022-12-08T05:36:11.588Z,5.00
2022-12-08T05:38:40.052Z,5.00
2022-12-08T05:41:08.785Z,4.83
2022-12-08T05:43:37.569Z,5.20
2022-12-08T05:46:06.402Z,5.10
2022-12-08T05:48:34.792Z,4.83
2022-12-08T05:51:03.421Z,5.30
2022-12-08T05:53:33.413Z,5.43
2022-12-08T05:56:01.843Z,4.40
2022-12-08T05:58:30.286Z,4.90
2022-12-08T06:00:58.687Z,4.97
2022-12-08T06:03:27.232Z,4.87
2022-12-08T06:05:55.730Z,5.20
2022-12-08T06:08:24.145Z,5.17
2022-12-08T06:10:53.981Z,5.33
2022-12-08T06:13:22.407Z,5.17
2022-12-08T06:15:50.810Z,5.50
2022-12-08T06:18:19.234Z,5.53
2022-12-08T06:20:47.761Z,4.90
2022-12-08T06:23:16.212Z,5.30
2022-12-08T06:25:44.732Z,5.10
2022-12-08T06:28:14.517Z,5.17
2022-12-08T06:30:42.935Z,5.10
2022-12-08T06:33:11.126Z,5.20
2022-12-08T06:35:39.248Z,5.00
2022-12-08T06:38:07.388Z,5.23
2022-12-08T06:40:35.573Z,5.50
2022-12-08T06:43:03.738Z,5.50
2022-12-08T06:45:33.377Z,5.80
2022-12-08T06:48:03.077Z,5.40
2022-12-08T06:50:32.618Z,5.10
2022-12-08T06:53:05.213Z,5.57
2022-12-08T06:55:57.983Z,5.83
2022-12-08T06:58:22.789Z,5.77
2022-12-08T07:00:52.388Z,5.37
2022-12-08T07:03:20.636Z,5.63
2022-12-08T07:05:48.954Z,5.53
2022-12-08T07:08:17.143Z,5.93
2022-12-08T07:10:45.332Z,5.20
2022-12-08T07:13:13.473Z,5.30
2022-12-08T07:15:41.644Z,5.40
2022-12-08T07:18:11.211Z,5.53
2022-12-08T07:20:39.541Z,5.00
2022-12-08T07:23:07.680Z,5.67
2022-12-08T07:25:35.904Z,5.63
2022-12-08T07:28:09.838Z,5.53
2022-12-08T07:30:38.222Z,5.80
2022-12-08T07:33:06.886Z,5.10
2022-12-08T07:35:36.457Z,5.60
2022-12-08T07:38:04.650Z,5.67
2022-12-08T07:40:32.753Z,5.77
2022-12-08T07:43:01.035Z,5.70
2022-12-08T07:45:31.712Z,6.13
2022-12-08T07:48:00.128Z,6.57
2022-12-08T07:50:28.264Z,6.40
2022-12-08T07:52:57.824Z,5.57
2022-12-08T07:55:26.187Z,6.20
2022-12-08T07:57:54.522Z,6.10
2022-12-08T08:00:22.974Z,6.00
2022-12-08T08:02:51.241Z,5.67
2022-12-08T08:05:20.724Z,7.00
2022-12-08T08:07:48.910Z,6.93
2022-12-08T08:10:18.946Z,6.87
2022-12-08T08:12:47.637Z,5.90
2022-12-08T08:15:15.767Z,6.80
2022-12-08T08:17:43.920Z,5.93
2022-12-08T08:20:13.046Z,6.10
2022-12-08T08:22:41.195Z,5.80
2022-12-08T08:25:10.347Z,5.87
2022-12-08T08:27:40.080Z,6.67
2022-12-08T08:30:12.987Z,6.00
2022-12-08T08:32:45.172Z,5.97
2022-12-08T08:35:13.387Z,6.40
2022-12-08T08:37:47.092Z,6.70
2022-12-08T08:40:17.234Z,6.53
2022-12-08T08:42:46.762Z,6.70
2022-12-08T08:45:14.893Z,7.20
2022-12-08T08:47:43.165Z,7.30
2022-12-08T08:50:11.522Z,7.53
2022-12-08T08:52:39.848Z,7.57
2022-12-08T08:55:08.549Z,8.03
2022-12-08T08:57:36.740Z,7.93
2022-12-08T09:00:10.170Z,8.07
2022-12-08T09:02:38.973Z,7.30
2022-12-08T09:05:08.185Z,7.73
2022-12-08T09:07:36.468Z,7.87
2022-12-08T09:10:05.420Z,8.50
2022-12-08T09:12:33.992Z,7.80
2022-12-08T09:15:02.173Z,8.10
2022-12-08T09:17:31.718Z,7.77
2022-12-08T09:20:01.390Z,8.03
2022-12-08T09:22:29.976Z,7.90
2022-12-08T09:24:58.218Z,7.70
2022-12-08T09:27:26.707Z,8.00
2022-12-08T09:29:55.131Z,7.30
2022-12-08T09:32:23.525Z,7.97
2022-12-08T09:34:54.256Z,8.17
2022-12-08T09:37:22.723Z,7.90
2022-12-08T09:39:50.920Z,7.90
2022-12-08T09:42:27.167Z,7.80
2022-12-08T09:45:01.708Z,7.93
2022-12-08T09:47:35.986Z,7.10
2022-12-08T09:50:09.747Z,7.80
2022-12-08T09:52:41.610Z,7.50
2022-12-08T09:55:14.078Z,8.00
2022-12-08T09:57:42.249Z,7.30
2022-12-08T10:00:13.683Z,8.17
2022-12-08T10:02:49.458Z,7.40
2022-12-08T10:05:19.524Z,7.60
2022-12-08T10:07:50.157Z,7.87
2022-12-08T10:10:28.238Z,8.43
2022-12-08T10:12:59.851Z,8.13
2022-12-08T10:15:35.993Z,7.70
2022-12-08T10:18:06.390Z,7.80
2022-12-08T10:20:39.198Z,7.77
2022-12-08T10:23:11.167Z,7.87
2022-12-08T10:25:43.093Z,7.00
2022-12-08T10:28:11.769Z,8.43
2022-12-08T10:30:40.260Z,8.27
2022-12-08T10:33:11.903Z,7.10
2022-12-08T10:35:48.818Z,7.40
2022-12-08T10:38:21.731Z,8.13
2022-12-08T10:40:51.785Z,8.10
2022-12-08T10:43:21.004Z,7.23
2022-12-08T10:45:49.706Z,7.60
2022-12-08T10:48:19.852Z,7.50
2022-12-08T10:50:55.606Z,7.97
2022-12-08T10:53:26.148Z,8.03
2022-12-08T10:56:06.774Z,8.23
2022-12-08T10:58:36.556Z,7.73
2022-12-08T11:01:11.154Z,8.63
2022-12-08T11:03:41.556Z,8.30
2022-12-08T11:06:18.207Z,8.23
2022-12-08T11:08:52.232Z,8.50
2022-12-08T11:11:27.501Z,7.97
2022-12-08T11:13:57.930Z,8.80
2022-12-08T11:16:26.420Z,8.10
2022-12-08T11:18:57.946Z,7.87
2022-12-08T11:21:35.042Z,7.47
2022-12-08T11:24:12.342Z,7.20
2022-12-08T11:26:40.949Z,7.67
2022-12-08T11:29:10.903Z,6.40
2022-12-08T11:31:43.263Z,6.37
2022-12-08T11:34:13.640Z,6.93
2022-12-08T11:36:43.640Z,6.37
2022-12-08T11:39:12.665Z,6.13
2022-12-08T11:41:42.925Z,6.10
2022-12-08T11:44:15.774Z,5.93
2022-12-08T11:46:46.083Z,5.70
2022-12-08T11:49:15.518Z,5.90
2022-12-08T11:51:48.401Z,6.07
2022-12-08T11:54:22.928Z,6.00
2022-12-08T11:56:53.407Z,6.40
2022-12-08T11:59:26.072Z,6.67
2022-12-08T12:01:54.651Z,6.33
2022-12-08T12:04:26.306Z,6.20
2022-12-08T12:07:24.586Z,6.33
2022-12-08T12:10:05.865Z,6.73
2022-12-08T12:12:44.649Z,6.60
2022-12-08T12:15:21.776Z,6.90
2022-12-08T12:17:52.806Z,6.87
2022-12-08T12:20:23.053Z,6.83
2022-12-08T12:22:54.226Z,6.23
2022-12-08T12:25:25.732Z,7.53
2022-12-08T12:27:57.919Z,8.23
2022-12-08T12:30:27.329Z,6.50
2022-12-08T12:32:57.345Z,7.80
2022-12-08T12:35:32.841Z,8.00
2022-12-08T12:38:03.248Z,7.70
2022-12-08T12:40:38.376Z,6.53
2022-12-08T12:43:26.138Z,7.13
2022-12-08T12:46:14.577Z,6.80
2022-12-08T12:48:43.061Z,5.70
2022-12-08T12:51:26.297Z,7.00
2022-12-08T12:53:54.741Z,7.20
2022-12-08T12:56:41.514Z,6.90
2022-12-08T12:59:37.752Z,6.77
2022-12-08T13:02:18.095Z,7.30
2022-12-08T13:04:54.229Z,6.50
2022-12-08T13:07:23.173Z,6.60
2022-12-08T13:09:56.869Z,6.43
2022-12-08T13:12:27.934Z,5.53
2022-12-08T13:15:00.252Z,5.77
2022-12-08T13:17:30.216Z,5.83
2022-12-08T13:19:59.765Z,5.33
2022-12-08T13:22:46.548Z,5.20
2022-12-08T13:25:36.796Z,5.30
2022-12-08T13:28:10.947Z,5.00
2022-12-08T13:30:47.389Z,4.80
2022-12-08T13:33:19.278Z,5.73
2022-12-08T13:35:55.539Z,5.57
2022-12-08T13:38:27.661Z,5.03
2022-12-08T13:40:57.701Z,5.77
2022-12-08T13:43:43.207Z,5.03
2022-12-08T13:57:35.741Z,5.23
2022-12-08T14:00:06.702Z,5.20
2022-12-08T14:02:40.869Z,4.87
2022-12-08T14:05:19.052Z,5.23
2022-12-08T14:07:50.121Z,5.37
2022-12-08T14:10:20.727Z,4.97
2022-12-08T14:12:53.475Z,5.30
2022-12-08T14:15:22.037Z,4.90
2022-12-08T14:17:54.483Z,5.00
2022-12-08T14:20:25.499Z,4.93
2022-12-08T14:22:54.600Z,4.97
2022-12-08T14:25:24.477Z,4.87
2022-12-08T14:27:58.621Z,4.70
2022-12-08T14:30:28.063Z,4.83
2022-12-08T14:32:58.826Z,4.97
2022-12-08T14:35:29.010Z,4.80
2022-12-08T14:37:59.291Z,5.20
2022-12-08T14:40:31.344Z,4.80
2022-12-08T14:43:08.514Z,4.87
2022-12-08T14:45:37.462Z,4.60
2022-12-08T14:48:21.182Z,4.67
2022-12-08T14:50:59.808Z,4.60
2022-12-08T14:53:30.193Z,4.97
2022-12-08T14:55:58.684Z,4.73
2022-12-08T14:58:29.623Z,4.93
2022-12-08T15:00:58.965Z,5.07
2022-12-08T15:03:28.756Z,5.10
2022-12-08T15:05:59.760Z,4.90
2022-12-08T15:08:28.220Z,4.80
2022-12-08T15:11:15.684Z,5.23
2022-12-08T15:13:46.606Z,5.60
2022-12-08T15:16:25.983Z,5.53
2022-12-08T15:19:03.509Z,6.80
2022-12-08T15:21:34.469Z,6.80
2022-12-08T15:24:03.030Z,6.83
2022-12-08T15:26:34.036Z,7.13
2022-12-08T15:29:11.670Z,6.43
2022-12-08T15:31:40.220Z,7.10
2022-12-08T15:34:08.682Z,6.77
2022-12-08T15:36:39.915Z,7.37
2022-12-08T15:39:11.660Z,7.20
2022-12-08T15:41:40.057Z,7.23
2022-12-08T15:44:08.515Z,7.87
2022-12-08T15:46:37.108Z,8.47
2022-12-08T15:49:06.050Z,8.03
2022-12-08T15:51:36.793Z,8.73
2022-12-08T15:54:06.665Z,8.07
2022-12-08T15:56:41.208Z,7.90
2022-12-08T15:59:24.599Z,7.70
2022-12-08T16:01:53.529Z,7.53
2022-12-08T16:05:18.403Z,8.77
2022-12-08T16:07:21.883Z,8.27
2022-12-08T16:09:52.215Z,7.93
2022-12-08T16:13:40.329Z,8.00
2022-12-08T16:18:23.931Z,7.90
2022-12-08T16:21:19.047Z,8.13
2022-12-08T16:23:43.606Z,8.27
2022-12-08T16:26:28.607Z,9.30
2022-12-08T16:29:04.268Z,8.60
2022-12-08T16:31:32.863Z,9.07
2022-12-08T16:34:01.100Z,9.40
2022-12-08T16:36:29.292Z,8.67
2022-12-08T16:38:57.564Z,9.17
2022-12-08T16:41:44.662Z,9.83
2022-12-08T16:44:12.895Z,10.40
2022-12-08T16:46:41.033Z,9.27
2022-12-08T16:49:10.467Z,10.33
2022-12-08T16:51:38.793Z,9.83
2022-12-08T16:54:06.958Z,10.73
2022-12-08T16:56:36.571Z,11.77
2022-12-08T16:59:04.828Z,11.30
2022-12-08T17:01:33.162Z,11.70
2022-12-08T17:06:50.933Z,12.87
2022-12-08T17:09:19.313Z,13.03
2022-12-08T17:11:48.829Z,13.20
2022-12-08T17:14:17.096Z,13.77
2022-12-08T17:16:46.084Z,13.73
2022-12-08T17:19:15.337Z,15.27
2022-12-08T17:21:44.354Z,13.73
2022-12-08T17:24:15.853Z,13.87
2022-12-08T17:26:48.235Z,16.57
2022-12-08T17:29:18.721Z,16.37
2022-12-08T17:31:47.154Z,15.57
2022-12-08T17:34:15.425Z,15.40
2022-12-08T17:36:43.639Z,14.60
2022-12-08T17:39:18.247Z,15.03
2022-12-08T17:41:48.700Z,15.23
2022-12-08T17:44:19.438Z,18.37
2022-12-08T17:46:52.657Z,17.47
2022-12-08T17:49:23.460Z,16.67
2022-12-08T17:51:53.658Z,17.70
2022-12-08T17:54:22.282Z,17.97
2022-12-08T17:56:52.006Z,17.33
2022-12-08T17:59:20.545Z,17.57
2022-12-08T18:01:48.806Z,16.93
2022-12-08T18:04:17.025Z,18.20
2022-12-08T18:06:45.169Z,16.90
2022-12-08T18:09:13.529Z,16.07
2022-12-08T18:11:42.015Z,17.57
2022-12-08T18:14:12.671Z,20.27
2022-12-08T18:16:42.387Z,22.90
2022-12-08T18:19:13.338Z,22.70
2022-12-08T18:21:42.233Z,25.90
2022-12-08T18:24:11.294Z,23.43
2022-12-08T18:26:41.310Z,25.50
2022-12-08T18:29:09.470Z,27.33
2022-12-08T18:31:39.049Z,26.90
2022-12-08T18:34:07.785Z,27.23
2022-12-08T18:36:36.293Z,27.50
2022-12-08T18:39:10.537Z,28.10
2022-12-08T18:41:39.476Z,27.03
2022-12-08T18:44:07.868Z,27.57
2022-12-08T18:46:36.376Z,28.00
2022-12-08T18:49:06.287Z,28.10
2022-12-08T18:51:34.681Z,28.23
2022-12-08T18:54:03.101Z,28.73
2022-12-08T18:56:32.324Z,30.07
2022-12-08T18:59:03.828Z,30.10
2022-12-08T19:01:33.021Z,32.13
2022-12-08T19:06:51.421Z,32.30
2022-12-08T19:09:19.846Z,33.57
2022-12-08T19:11:48.351Z,32.20
2022-12-08T19:14:16.843Z,33.07
2022-12-08T19:16:45.235Z,33.40
2022-12-08T19:19:13.652Z,33.97
2022-12-08T19:21:46.266Z,32.90
2022-12-08T19:24:16.606Z,34.47
2022-12-08T19:26:45.175Z,36.20
2022-12-08T19:29:13.870Z,34.37
2022-12-08T19:31:42.503Z,34.60
2022-12-08T19:34:11.417Z,37.07
2022-12-08T19:36:42.723Z,35.27
2022-12-08T19:39:32.023Z,36.33
2022-12-08T19:42:24.740Z,37.00
2022-12-08T19:44:55.954Z,36.33
2022-12-08T19:47:25.212Z,36.97
2022-12-08T19:49:54.800Z,37.10
2022-12-08T19:52:23.353Z,35.17
2022-12-08T19:54:51.796Z,36.03
2022-12-08T19:57:22.050Z,35.43
2022-12-08T20:00:05.990Z,36.10
2022-12-08T20:02:34.459Z,35.23
2022-12-08T20:05:03.037Z,35.73
2022-12-08T20:07:31.470Z,36.57
2022-12-08T20:09:59.944Z,35.70
2022-12-08T20:12:29.783Z,33.73
2022-12-08T20:14:58.191Z,35.50
2022-12-08T20:17:26.640Z,35.83
2022-12-08T20:19:55.334Z,34.77
2022-12-08T20:22:23.785Z,35.80
2022-12-08T20:25:08.160Z,33.87
2022-12-08T20:27:41.032Z,35.17
2022-12-08T20:30:16.434Z,37.17
2022-12-08T20:32:45.699Z,35.80
2022-12-08T20:35:14.239Z,33.97
2022-12-08T20:37:42.960Z,33.97
2022-12-08T20:40:11.690Z,34.80
2022-12-08T20:42:41.538Z,34.67
2022-12-08T20:45:10.556Z,36.10
2022-12-08T20:47:39.702Z,37.77
2022-12-08T20:50:09.463Z,37.40
2022-12-08T20:52:38.932Z,38.00
2022-12-08T20:55:08.305Z,37.63
2022-12-08T20:57:37.115Z,37.13
2022-12-08T21:00:08.335Z,35.17
2022-12-08T21:02:40.494Z,35.60
2022-12-08T21:05:12.087Z,36.50
2022-12-08T21:07:40.754Z,36.80
2022-12-08T21:10:10.359Z,35.33
2022-12-08T21:12:39.091Z,37.50
2022-12-08T21:15:11.418Z,38.50
2022-12-08T21:17:39.977Z,37.93
2022-12-08T21:20:09.518Z,37.33
2022-12-08T21:22:39.984Z,37.73
2022-12-08T21:25:09.601Z,39.83
2022-12-08T21:27:39.409Z,38.73
2022-12-08T21:30:11.466Z,37.90
2022-12-08T21:32:40.385Z,38.90
2022-12-08T21:35:09.829Z,38.90
2022-12-08T21:37:38.683Z,38.67
2022-12-08T21:40:08.361Z,39.17
2022-12-08T21:42:46.175Z,39.37
2022-12-08T21:45:16.895Z,38.87
2022-12-08T21:47:45.804Z,38.73
2022-12-08T21:50:15.037Z,39.60
2022-12-08T21:52:44.376Z,38.23
2022-12-08T21:55:13.976Z,39.97
2022-12-08T21:57:42.796Z,39.87
2022-12-08T22:00:13.250Z,40.07
2022-12-08T22:02:43.689Z,38.73
2022-12-08T22:05:12.805Z,38.90
2022-12-08T22:07:42.463Z,38.53
2022-12-08T22:10:12.211Z,39.30
2022-12-08T22:12:41.415Z,39.43
2022-12-08T22:15:10.995Z,38.93
2022-12-08T22:17:39.929Z,40.27
2022-12-08T22:20:11.542Z,40.83
2022-12-08T22:22:40.353Z,38.90
2022-12-08T22:25:11.942Z,40.33
2022-12-08T22:27:40.975Z,39.60
2022-12-08T22:30:10.860Z,40.47
2022-12-08T22:32:40.131Z,39.87
2022-12-08T22:35:10.641Z,39.17
2022-12-08T22:37:39.034Z,37.93
2022-12-08T22:40:09.400Z,36.63
2022-12-08T22:42:38.091Z,37.17
2022-12-08T22:45:06.887Z,36.03
2022-12-08T22:47:35.545Z,37.73
2022-12-08T22:50:04.894Z,38.60
2022-12-08T22:52:35.117Z,37.50
2022-12-08T22:55:03.554Z,36.10
2022-12-08T22:57:32.226Z,35.90
2022-12-08T23:00:00.644Z,36.20
2022-12-08T23:02:29.339Z,36.37
2022-12-08T23:04:57.935Z,36.30
2022-12-08T23:07:26.482Z,35.60
2022-12-08T23:09:56.481Z,33.20
2022-12-08T23:12:25.046Z,35.50
2022-12-08T23:14:53.529Z,35.83
2022-12-08T23:17:22.133Z,34.47
2022-12-08T23:19:50.638Z,35.37
2022-12-08T23:22:19.078Z,33.43
2022-12-08T23:24:47.586Z,33.77
2022-12-08T23:27:17.589Z,33.07
2022-12-08T23:29:46.000Z,35.77
2022-12-08T23:32:14.853Z,34.73
2022-12-08T23:34:43.528Z,34.40
2022-12-08T23:37:12.201Z,35.53
2022-12-08T23:39:40.634Z,38.30
2022-12-08T23:42:09.083Z,37.87
2022-12-08T23:44:39.092Z,36.90
2022-12-08T23:47:07.596Z,37.83
2022-12-08T23:49:36.034Z,38.57
2022-12-08T23:52:04.519Z,39.97
2022-12-08T23:54:33.801Z,39.87
2022-12-08T23:57:02.206Z,40.57
2022-12-08T23:59:32.570Z,41.37
